sensor_id;sensor_type;location;lat;lon;timestamp;P1;durP1;ratioP1;P2;durP2;ratioP2
72369;SDS011;60343;-32.030;115.880;2022-09-17T00:00:04;4.40;;;1.55;;
72369;SDS011;60343;-32.030;115.880;2022-09-17T00:02:33;5.65;;;1.38;;
72369;SDS011;60343;-32.030;115.880;2022-09-17T00:05:01;5.40;;;1.90;;
72369;SDS011;60343;-32.030;115.880;2022-09-17T00:07:36;6.28;;;1.40;;
72369;SDS011;60343;-32.030;115.880;2022-09-17T00:10:04;5.47;;;1.65;;
72369;SDS011;60343;-32.030;115.880;2022-09-17T00:12:33;5.38;;;1.52;;
72369;SDS011;60343;-32.030;115.880;2022-09-17T00:15:01;4.72;;;1.60;;
72369;SDS011;60343;-32.030;115.880;2022-09-17T00:17:29;5.32;;;1.50;;
72369;SDS011;60343;-32.030;115.880;2022-09-17T00:19:57;3.13;;;1.20;;
72369;SDS011;60343;-32.030;115.880;2022-09-17T00:22:26;5.53;;;1.55;;
72369;SDS011;60343;-32.030;115.880;2022-09-17T00:25:00;5.55;;;1.50;;
72369;SDS011;60343;-32.030;115.880;2022-09-17T00:27:28;3.13;;;1.30;;
72369;SDS011;60343;-32.030;115.880;2022-09-17T00:29:56;4.38;;;1.30;;
72369;SDS011;60343;-32.030;115.880;2022-09-17T00:32:24;6.15;;;1.48;;
72369;SDS011;60343;-32.030;115.880;2022-09-17T00:34:53;6.13;;;1.30;;
72369;SDS011;60343;-32.030;115.880;2022-09-17T00:37:21;4.82;;;1.50;;
72369;SDS011;60343;-32.030;115.880;2022-09-17T00:39:49;7.05;;;1.40;;
72369;SDS011;60343;-32.030;115.880;2022-09-17T00:42:23;4.85;;;1.70;;
72369;SDS011;60343;-32.030;115.880;2022-09-17T00:44:55;4.13;;;1.30;;
72369;SDS011;60343;-32.030;115.880;2022-09-17T00:47:26;5.50;;;1.30;;
72369;SDS011;60343;-32.030;115.880;2022-09-17T00:49:57;5.38;;;1.45;;
72369;SDS011;60343;-32.030;115.880;2022-09-17T00:52:29;7.93;;;1.63;;
72369;SDS011;60343;-32.030;115.880;2022-09-17T00:55:03;5.43;;;1.40;;
72369;SDS011;60343;-32.030;115.880;2022-09-17T00:57:42;3.53;;;1.20;;
72369;SDS011;60343;-32.030;115.880;2022-09-17T01:00:12;3.55;;;1.60;;
72369;SDS011;60343;-32.030;115.880;2022-09-17T01:02:42;4.07;;;1.20;;
72369;SDS011;60343;-32.030;115.880;2022-09-17T01:05:10;5.07;;;1.60;;
72369;SDS011;60343;-32.030;115.880;2022-09-17T01:10:39;6.07;;;1.30;;
72369;SDS011;60343;-32.030;115.880;2022-09-17T01:13:35;4.82;;;1.27;;
72369;SDS011;60343;-32.030;115.880;2022-09-17T01:16:13;3.33;;;1.17;;
72369;SDS011;60343;-32.030;115.880;2022-09-17T01:18:54;2.50;;;1.10;;
72369;SDS011;60343;-32.030;115.880;2022-09-17T01:21:43;4.55;;;1.42;;
72369;SDS011;60343;-32.030;115.880;2022-09-17T01:27:24;3.92;;;1.10;;
72369;SDS011;60343;-32.030;115.880;2022-09-17T01:33:05;6.00;;;1.25;;
72369;SDS011;60343;-32.030;115.880;2022-09-17T01:35:41;5.20;;;1.00;;
72369;SDS011;60343;-32.030;115.880;2022-09-17T01:38:20;6.13;;;1.20;;
72369;SDS011;60343;-32.030;115.880;2022-09-17T01:40:54;3.97;;;1.05;;
72369;SDS011;60343;-32.030;115.880;2022-09-17T01:43:29;4.78;;;0.95;;
72369;SDS011;60343;-32.030;115.880;2022-09-17T01:46:20;4.80;;;1.05;;
72369;SDS011;60343;-32.030;115.880;2022-09-17T01:48:55;7.80;;;1.15;;
72369;SDS011;60343;-32.030;115.880;2022-09-17T01:51:34;3.65;;;0.90;;
72369;SDS011;60343;-32.030;115.880;2022-09-17T01:54:04;2.88;;;0.80;;
72369;SDS011;60343;-32.030;115.880;2022-09-17T01:56:38;3.70;;;1.25;;
72369;SDS011;60343;-32.030;115.880;2022-09-17T01:59:10;3.60;;;0.90;;
72369;SDS011;60343;-32.030;115.880;2022-09-17T02:01:50;2.90;;;0.85;;
72369;SDS011;60343;-32.030;115.880;2022-09-17T02:04:24;2.90;;;0.90;;
72369;SDS011;60343;-32.030;115.880;2022-09-17T02:06:56;4.50;;;0.95;;
72369;SDS011;60343;-32.030;115.880;2022-09-17T02:09:30;6.53;;;1.10;;
72369;SDS011;60343;-32.030;115.880;2022-09-17T02:12:02;2.95;;;0.95;;
72369;SDS011;60343;-32.030;115.880;2022-09-17T02:14:37;3.78;;;1.05;;
72369;SDS011;60343;-32.030;115.880;2022-09-17T02:17:15;4.32;;;0.80;;
72369;SDS011;60343;-32.030;115.880;2022-09-17T02:19:50;3.47;;;0.90;;
72369;SDS011;60343;-32.030;115.880;2022-09-17T02:22:20;2.42;;;0.68;;
72369;SDS011;60343;-32.030;115.880;2022-09-17T02:24:55;1.95;;;0.60;;
72369;SDS011;60343;-32.030;115.880;2022-09-17T02:27:33;1.92;;;0.63;;
72369;SDS011;60343;-32.030;115.880;2022-09-17T02:30:08;4.13;;;0.68;;
72369;SDS011;60343;-32.030;115.880;2022-09-17T02:32:42;2.70;;;0.70;;
72369;SDS011;60343;-32.030;115.880;2022-09-17T02:35:12;7.20;;;0.50;;
72369;SDS011;60343;-32.030;115.880;2022-09-17T02:37:41;2.92;;;0.60;;
72369;SDS011;60343;-32.030;115.880;2022-09-17T02:40:09;1.40;;;0.50;;
72369;SDS011;60343;-32.030;115.880;2022-09-17T02:42:49;2.00;;;0.43;;
72369;SDS011;60343;-32.030;115.880;2022-09-17T02:45:34;1.42;;;0.30;;
72369;SDS011;60343;-32.030;115.880;2022-09-17T02:48:23;2.50;;;0.50;;
72369;SDS011;60343;-32.030;115.880;2022-09-17T02:51:04;3.60;;;0.60;;
72369;SDS011;60343;-32.030;115.880;2022-09-17T02:53:47;1.45;;;0.40;;
72369;SDS011;60343;-32.030;115.880;2022-09-17T02:56:25;1.92;;;0.40;;
72369;SDS011;60343;-32.030;115.880;2022-09-17T02:59:07;1.23;;;0.40;;
72369;SDS011;60343;-32.030;115.880;2022-09-17T03:01:43;1.75;;;0.40;;
72369;SDS011;60343;-32.030;115.880;2022-09-17T03:04:25;1.73;;;0.20;;
72369;SDS011;60343;-32.030;115.880;2022-09-17T03:06:55;0.73;;;0.25;;
72369;SDS011;60343;-32.030;115.880;2022-09-17T03:09:23;1.13;;;0.10;;
72369;SDS011;60343;-32.030;115.880;2022-09-17T03:11:51;2.35;;;0.47;;
72369;SDS011;60343;-32.030;115.880;2022-09-17T03:14:19;1.50;;;0.10;;
72369;SDS011;60343;-32.030;115.880;2022-09-17T03:16:48;0.68;;;0.20;;
72369;SDS011;60343;-32.030;115.880;2022-09-17T03:19:16;0.98;;;0.32;;
72369;SDS011;60343;-32.030;115.880;2022-09-17T03:21:50;0.77;;;0.20;;
72369;SDS011;60343;-32.030;115.880;2022-09-17T03:24:21;1.38;;;0.20;;
72369;SDS011;60343;-32.030;115.880;2022-09-17T03:26:49;1.10;;;0.25;;
72369;SDS011;60343;-32.030;115.880;2022-09-17T03:29:17;2.58;;;0.60;;
72369;SDS011;60343;-32.030;115.880;2022-09-17T03:31:51;1.30;;;0.20;;
72369;SDS011;60343;-32.030;115.880;2022-09-17T03:34:19;2.00;;;0.30;;
72369;SDS011;60343;-32.030;115.880;2022-09-17T03:36:53;2.03;;;0.50;;
72369;SDS011;60343;-32.030;115.880;2022-09-17T03:39:21;2.30;;;0.38;;
72369;SDS011;60343;-32.030;115.880;2022-09-17T03:41:50;3.15;;;0.40;;
72369;SDS011;60343;-32.030;115.880;2022-09-17T03:44:18;0.80;;;0.38;;
72369;SDS011;60343;-32.030;115.880;2022-09-17T03:46:46;1.65;;;0.40;;
72369;SDS011;60343;-32.030;115.880;2022-09-17T03:49:14;3.38;;;0.90;;
72369;SDS011;60343;-32.030;115.880;2022-09-17T03:51:42;2.05;;;0.68;;
72369;SDS011;60343;-32.030;115.880;2022-09-17T03:54:19;2.25;;;0.70;;
72369;SDS011;60343;-32.030;115.880;2022-09-17T03:56:47;3.97;;;0.63;;
72369;SDS011;60343;-32.030;115.880;2022-09-17T03:59:16;2.90;;;0.77;;
72369;SDS011;60343;-32.030;115.880;2022-09-17T04:01:44;2.72;;;0.73;;
72369;SDS011;60343;-32.030;115.880;2022-09-17T04:04:15;3.35;;;0.70;;
72369;SDS011;60343;-32.030;115.880;2022-09-17T04:06:46;3.45;;;0.63;;
72369;SDS011;60343;-32.030;115.880;2022-09-17T04:09:20;3.85;;;0.70;;
72369;SDS011;60343;-32.030;115.880;2022-09-17T04:11:48;4.07;;;0.50;;
72369;SDS011;60343;-32.030;115.880;2022-09-17T04:14:17;2.88;;;0.60;;
72369;SDS011;60343;-32.030;115.880;2022-09-17T04:16:45;3.35;;;0.47;;
72369;SDS011;60343;-32.030;115.880;2022-09-17T04:19:13;1.85;;;0.45;;
72369;SDS011;60343;-32.030;115.880;2022-09-17T04:21:41;2.50;;;0.40;;
72369;SDS011;60343;-32.030;115.880;2022-09-17T04:24:09;3.15;;;1.20;;
72369;SDS011;60343;-32.030;115.880;2022-09-17T04:26:43;1.48;;;0.32;;
72369;SDS011;60343;-32.030;115.880;2022-09-17T04:29:12;1.33;;;0.28;;
72369;SDS011;60343;-32.030;115.880;2022-09-17T04:31:44;5.60;;;1.35;;
72369;SDS011;60343;-32.030;115.880;2022-09-17T04:34:15;0.40;;;0.20;;
72369;SDS011;60343;-32.030;115.880;2022-09-17T04:36:43;1.38;;;0.47;;
72369;SDS011;60343;-32.030;115.880;2022-09-17T04:39:14;0.95;;;0.40;;
72369;SDS011;60343;-32.030;115.880;2022-09-17T04:41:48;2.80;;;0.50;;
72369;SDS011;60343;-32.030;115.880;2022-09-17T04:44:17;0.98;;;0.20;;
72369;SDS011;60343;-32.030;115.880;2022-09-17T04:46:45;3.17;;;0.40;;
72369;SDS011;60343;-32.030;115.880;2022-09-17T04:49:13;1.00;;;0.28;;
72369;SDS011;60343;-32.030;115.880;2022-09-17T04:51:44;1.77;;;0.20;;
72369;SDS011;60343;-32.030;115.880;2022-09-17T04:54:12;2.15;;;0.30;;
72369;SDS011;60343;-32.030;115.880;2022-09-17T04:56:40;1.15;;;0.20;;
72369;SDS011;60343;-32.030;115.880;2022-09-17T04:59:20;1.08;;;0.20;;
72369;SDS011;60343;-32.030;115.880;2022-09-17T05:01:48;0.40;;;0.20;;
72369;SDS011;60343;-32.030;115.880;2022-09-17T05:04:16;1.40;;;0.30;;
72369;SDS011;60343;-32.030;115.880;2022-09-17T05:06:44;0.57;;;0.20;;
72369;SDS011;60343;-32.030;115.880;2022-09-17T05:09:15;2.72;;;0.20;;
72369;SDS011;60343;-32.030;115.880;2022-09-17T05:11:43;0.70;;;0.13;;
72369;SDS011;60343;-32.030;115.880;2022-09-17T05:14:12;0.30;;;0.10;;
72369;SDS011;60343;-32.030;115.880;2022-09-17T05:16:46;0.32;;;0.10;;
72369;SDS011;60343;-32.030;115.880;2022-09-17T05:19:14;1.58;;;0.38;;
72369;SDS011;60343;-32.030;115.880;2022-09-17T05:21:42;0.95;;;0.20;;
72369;SDS011;60343;-32.030;115.880;2022-09-17T05:24:10;0.43;;;0.15;;
72369;SDS011;60343;-32.030;115.880;2022-09-17T05:26:41;0.50;;;0.10;;
72369;SDS011;60343;-32.030;115.880;2022-09-17T05:29:10;0.85;;;0.20;;
72369;SDS011;60343;-32.030;115.880;2022-09-17T05:31:38;0.90;;;0.30;;
72369;SDS011;60343;-32.030;115.880;2022-09-17T05:34:12;1.20;;;0.20;;
72369;SDS011;60343;-32.030;115.880;2022-09-17T05:36:40;0.98;;;0.10;;
72369;SDS011;60343;-32.030;115.880;2022-09-17T05:39:09;0.30;;;0.20;;
72369;SDS011;60343;-32.030;115.880;2022-09-17T05:41:37;1.08;;;0.30;;
72369;SDS011;60343;-32.030;115.880;2022-09-17T05:44:05;1.08;;;0.30;;
72369;SDS011;60343;-32.030;115.880;2022-09-17T05:46:34;1.85;;;0.25;;
72369;SDS011;60343;-32.030;115.880;2022-09-17T05:49:08;0.22;;;0.20;;
72369;SDS011;60343;-32.030;115.880;2022-09-17T05:51:36;1.38;;;0.25;;
72369;SDS011;60343;-32.030;115.880;2022-09-17T05:54:04;1.33;;;0.40;;
72369;SDS011;60343;-32.030;115.880;2022-09-17T05:56:33;1.52;;;0.20;;
72369;SDS011;60343;-32.030;115.880;2022-09-17T05:59:04;1.10;;;0.30;;
72369;SDS011;60343;-32.030;115.880;2022-09-17T06:01:32;0.22;;;0.10;;
72369;SDS011;60343;-32.030;115.880;2022-09-17T06:04:00;1.10;;;0.30;;
72369;SDS011;60343;-32.030;115.880;2022-09-17T06:06:35;1.17;;;0.30;;
72369;SDS011;60343;-32.030;115.880;2022-09-17T06:09:04;1.17;;;0.40;;
72369;SDS011;60343;-32.030;115.880;2022-09-17T06:11:32;0.88;;;0.30;;
72369;SDS011;60343;-32.030;115.880;2022-09-17T06:14:01;1.35;;;0.40;;
72369;SDS011;60343;-32.030;115.880;2022-09-17T06:16:30;0.63;;;0.22;;
72369;SDS011;60343;-32.030;115.880;2022-09-17T06:18:58;1.08;;;0.38;;
72369;SDS011;60343;-32.030;115.880;2022-09-17T06:21:32;2.60;;;0.30;;
72369;SDS011;60343;-32.030;115.880;2022-09-17T06:24:01;1.48;;;0.38;;
72369;SDS011;60343;-32.030;115.880;2022-09-17T06:26:29;1.88;;;0.50;;
72369;SDS011;60343;-32.030;115.880;2022-09-17T06:28:58;2.00;;;0.47;;
72369;SDS011;60343;-32.030;115.880;2022-09-17T06:31:31;1.42;;;0.60;;
72369;SDS011;60343;-32.030;115.880;2022-09-17T06:33:59;1.75;;;0.40;;
72369;SDS011;60343;-32.030;115.880;2022-09-17T06:36:37;1.33;;;0.50;;
72369;SDS011;60343;-32.030;115.880;2022-09-17T06:39:06;0.90;;;0.40;;
72369;SDS011;60343;-32.030;115.880;2022-09-17T06:41:34;1.58;;;0.43;;
72369;SDS011;60343;-32.030;115.880;2022-09-17T06:44:04;1.65;;;0.45;;
72369;SDS011;60343;-32.030;115.880;2022-09-17T06:46:32;2.35;;;0.60;;
72369;SDS011;60343;-32.030;115.880;2022-09-17T06:49:02;1.23;;;0.40;;
72369;SDS011;60343;-32.030;115.880;2022-09-17T06:51:37;1.33;;;0.35;;
72369;SDS011;60343;-32.030;115.880;2022-09-17T06:54:07;1.13;;;0.50;;
72369;SDS011;60343;-32.030;115.880;2022-09-17T06:56:35;2.15;;;0.43;;
72369;SDS011;60343;-32.030;115.880;2022-09-17T06:59:03;1.48;;;0.40;;
72369;SDS011;60343;-32.030;115.880;2022-09-17T07:01:31;1.45;;;0.35;;
72369;SDS011;60343;-32.030;115.880;2022-09-17T07:04:00;1.33;;;0.30;;
72369;SDS011;60343;-32.030;115.880;2022-09-17T07:06:28;0.43;;;0.20;;
72369;SDS011;60343;-32.030;115.880;2022-09-17T07:09:06;2.55;;;0.50;;
72369;SDS011;60343;-32.030;115.880;2022-09-17T07:11:35;1.08;;;0.35;;
72369;SDS011;60343;-32.030;115.880;2022-09-17T07:14:03;0.88;;;0.32;;
72369;SDS011;60343;-32.030;115.880;2022-09-17T07:16:35;1.25;;;0.30;;
72369;SDS011;60343;-32.030;115.880;2022-09-17T07:19:03;2.40;;;0.40;;
72369;SDS011;60343;-32.030;115.880;2022-09-17T07:21:32;1.15;;;0.20;;
72369;SDS011;60343;-32.030;115.880;2022-09-17T07:24:06;1.50;;;0.40;;
72369;SDS011;60343;-32.030;115.880;2022-09-17T07:26:34;0.68;;;0.15;;
72369;SDS011;60343;-32.030;115.880;2022-09-17T07:29:07;1.88;;;0.30;;
72369;SDS011;60343;-32.030;115.880;2022-09-17T07:31:36;0.85;;;0.20;;
72369;SDS011;60343;-32.030;115.880;2022-09-17T07:34:04;2.08;;;0.20;;
72369;SDS011;60343;-32.030;115.880;2022-09-17T07:36:35;2.78;;;0.40;;
72369;SDS011;60343;-32.030;115.880;2022-09-17T07:39:09;4.55;;;1.10;;
72369;SDS011;60343;-32.030;115.880;2022-09-17T07:41:38;3.10;;;0.47;;
72369;SDS011;60343;-32.030;115.880;2022-09-17T07:44:06;1.90;;;0.40;;
72369;SDS011;60343;-32.030;115.880;2022-09-17T07:46:34;1.73;;;0.40;;
72369;SDS011;60343;-32.030;115.880;2022-09-17T07:49:03;1.05;;;0.20;;
72369;SDS011;60343;-32.030;115.880;2022-09-17T07:51:31;0.50;;;0.20;;
72369;SDS011;60343;-32.030;115.880;2022-09-17T07:53:59;0.55;;;0.20;;
72369;SDS011;60343;-32.030;115.880;2022-09-17T07:56:34;1.20;;;0.30;;
72369;SDS011;60343;-32.030;115.880;2022-09-17T07:59:02;1.15;;;0.40;;
72369;SDS011;60343;-32.030;115.880;2022-09-17T08:04:02;0.88;;;0.20;;
72369;SDS011;60343;-32.030;115.880;2022-09-17T08:06:35;1.08;;;0.30;;
72369;SDS011;60343;-32.030;115.880;2022-09-17T08:09:04;1.92;;;0.45;;
72369;SDS011;60343;-32.030;115.880;2022-09-17T08:11:39;1.17;;;0.43;;
72369;SDS011;60343;-32.030;115.880;2022-09-17T08:14:09;1.33;;;0.40;;
72369;SDS011;60343;-32.030;115.880;2022-09-17T08:16:39;0.68;;;0.40;;
72369;SDS011;60343;-32.030;115.880;2022-09-17T08:19:07;1.67;;;0.30;;
72369;SDS011;60343;-32.030;115.880;2022-09-17T08:21:35;1.10;;;0.40;;
72369;SDS011;60343;-32.030;115.880;2022-09-17T08:24:04;0.55;;;0.30;;
72369;SDS011;60343;-32.030;115.880;2022-09-17T08:26:38;1.52;;;0.60;;
72369;SDS011;60343;-32.030;115.880;2022-09-17T08:29:06;2.00;;;0.55;;
72369;SDS011;60343;-32.030;115.880;2022-09-17T08:31:35;1.00;;;0.40;;
72369;SDS011;60343;-32.030;115.880;2022-09-17T08:34:06;2.05;;;0.50;;
72369;SDS011;60343;-32.030;115.880;2022-09-17T08:36:34;2.53;;;0.68;;
72369;SDS011;60343;-32.030;115.880;2022-09-17T08:39:03;2.72;;;0.70;;
72369;SDS011;60343;-32.030;115.880;2022-09-17T08:41:39;1.20;;;0.40;;
72369;SDS011;60343;-32.030;115.880;2022-09-17T08:44:16;2.05;;;0.57;;
72369;SDS011;60343;-32.030;115.880;2022-09-17T08:46:56;2.70;;;0.47;;
72369;SDS011;60343;-32.030;115.880;2022-09-17T08:49:29;2.53;;;0.65;;
72369;SDS011;60343;-32.030;115.880;2022-09-17T08:52:07;2.30;;;0.70;;
72369;SDS011;60343;-32.030;115.880;2022-09-17T08:54:53;3.47;;;0.73;;
72369;SDS011;60343;-32.030;115.880;2022-09-17T08:57:37;4.20;;;0.70;;
72369;SDS011;60343;-32.030;115.880;2022-09-17T09:00:11;2.53;;;0.65;;
72369;SDS011;60343;-32.030;115.880;2022-09-17T09:02:46;3.63;;;0.80;;
72369;SDS011;60343;-32.030;115.880;2022-09-17T09:05:34;2.80;;;0.70;;
72369;SDS011;60343;-32.030;115.880;2022-09-17T09:08:11;2.00;;;0.52;;
72369;SDS011;60343;-32.030;115.880;2022-09-17T09:10:49;2.88;;;0.80;;
72369;SDS011;60343;-32.030;115.880;2022-09-17T09:13:27;2.70;;;0.65;;
72369;SDS011;60343;-32.030;115.880;2022-09-17T09:15:59;1.98;;;0.60;;
72369;SDS011;60343;-32.030;115.880;2022-09-17T09:18:32;2.28;;;0.80;;
72369;SDS011;60343;-32.030;115.880;2022-09-17T09:21:07;3.92;;;1.00;;
72369;SDS011;60343;-32.030;115.880;2022-09-17T09:23:51;3.88;;;0.82;;
72369;SDS011;60343;-32.030;115.880;2022-09-17T09:26:20;4.47;;;0.80;;
72369;SDS011;60343;-32.030;115.880;2022-09-17T09:29:01;3.78;;;0.80;;
72369;SDS011;60343;-32.030;115.880;2022-09-17T09:31:49;2.47;;;0.73;;
72369;SDS011;60343;-32.030;115.880;2022-09-17T09:34:39;3.55;;;1.00;;
72369;SDS011;60343;-32.030;115.880;2022-09-17T09:37:11;4.07;;;0.98;;
72369;SDS011;60343;-32.030;115.880;2022-09-17T09:39:43;4.07;;;0.95;;
72369;SDS011;60343;-32.030;115.880;2022-09-17T09:42:18;4.50;;;1.00;;
72369;SDS011;60343;-32.030;115.880;2022-09-17T09:45:05;3.97;;;1.10;;
72369;SDS011;60343;-32.030;115.880;2022-09-17T09:47:45;3.60;;;1.10;;
72369;SDS011;60343;-32.030;115.880;2022-09-17T09:50:34;5.13;;;1.33;;
72369;SDS011;60343;-32.030;115.880;2022-09-17T09:53:14;6.45;;;1.98;;
72369;SDS011;60343;-32.030;115.880;2022-09-17T09:55:52;5.53;;;1.80;;
72369;SDS011;60343;-32.030;115.880;2022-09-17T09:58:37;5.10;;;1.55;;
72369;SDS011;60343;-32.030;115.880;2022-09-17T10:01:16;5.75;;;1.50;;
72369;SDS011;60343;-32.030;115.880;2022-09-17T10:03:46;5.68;;;1.50;;
72369;SDS011;60343;-32.030;115.880;2022-09-17T10:06:15;6.32;;;1.83;;
72369;SDS011;60343;-32.030;115.880;2022-09-17T10:21:00;5.03;;;1.05;;
72369;SDS011;60343;-32.030;115.880;2022-09-17T10:23:29;3.67;;;1.30;;
72369;SDS011;60343;-32.030;115.880;2022-09-17T10:26:05;3.28;;;1.10;;
72369;SDS011;60343;-32.030;115.880;2022-09-17T10:28:46;3.60;;;1.20;;
72369;SDS011;60343;-32.030;115.880;2022-09-17T10:31:16;4.57;;;1.50;;
72369;SDS011;60343;-32.030;115.880;2022-09-17T10:33:50;5.40;;;1.58;;
72369;SDS011;60343;-32.030;115.880;2022-09-17T10:36:42;5.97;;;1.23;;
72369;SDS011;60343;-32.030;115.880;2022-09-17T10:41:56;5.53;;;0.82;;
72369;SDS011;60343;-32.030;115.880;2022-09-17T10:44:26;5.65;;;1.10;;
72369;SDS011;60343;-32.030;115.880;2022-09-17T10:47:00;6.50;;;1.00;;
72369;SDS011;60343;-32.030;115.880;2022-09-17T10:49:38;2.67;;;1.00;;
72369;SDS011;60343;-32.030;115.880;2022-09-17T10:52:20;4.32;;;1.10;;
72369;SDS011;60343;-32.030;115.880;2022-09-17T10:54:59;5.70;;;1.10;;
72369;SDS011;60343;-32.030;115.880;2022-09-17T10:57:45;3.88;;;1.10;;
72369;SDS011;60343;-32.030;115.880;2022-09-17T11:00:23;3.33;;;1.00;;
72369;SDS011;60343;-32.030;115.880;2022-09-17T11:09:12;2.80;;;0.88;;
72369;SDS011;60343;-32.030;115.880;2022-09-17T11:11:52;3.13;;;1.00;;
72369;SDS011;60343;-32.030;115.880;2022-09-17T11:14:46;1.60;;;0.65;;
72369;SDS011;60343;-32.030;115.880;2022-09-17T11:17:26;2.63;;;0.70;;
72369;SDS011;60343;-32.030;115.880;2022-09-17T11:20:19;3.20;;;0.85;;
72369;SDS011;60343;-32.030;115.880;2022-09-17T11:22:57;2.50;;;0.60;;
72369;SDS011;60343;-32.030;115.880;2022-09-17T11:25:49;5.38;;;0.75;;
72369;SDS011;60343;-32.030;115.880;2022-09-17T11:31:01;4.60;;;0.93;;
72369;SDS011;60343;-32.030;115.880;2022-09-17T11:33:44;3.63;;;0.93;;
72369;SDS011;60343;-32.030;115.880;2022-09-17T11:36:32;3.78;;;0.93;;
72369;SDS011;60343;-32.030;115.880;2022-09-17T11:39:13;4.13;;;1.00;;
72369;SDS011;60343;-32.030;115.880;2022-09-17T11:41:53;4.32;;;1.00;;
72369;SDS011;60343;-32.030;115.880;2022-09-17T11:44:24;7.35;;;1.10;;
72369;SDS011;60343;-32.030;115.880;2022-09-17T11:46:57;4.55;;;1.00;;
72369;SDS011;60343;-32.030;115.880;2022-09-17T11:49:33;3.28;;;0.98;;
72369;SDS011;60343;-32.030;115.880;2022-09-17T11:52:07;4.63;;;1.08;;
72369;SDS011;60343;-32.030;115.880;2022-09-17T11:57:15;5.88;;;1.33;;
72369;SDS011;60343;-32.030;115.880;2022-09-17T11:59:46;5.50;;;1.42;;
72369;SDS011;60343;-32.030;115.880;2022-09-17T12:02:21;5.22;;;1.58;;
72369;SDS011;60343;-32.030;115.880;2022-09-17T12:04:57;5.80;;;1.40;;
72369;SDS011;60343;-32.030;115.880;2022-09-17T12:07:34;5.00;;;1.52;;
72369;SDS011;60343;-32.030;115.880;2022-09-17T12:10:14;6.53;;;1.40;;
72369;SDS011;60343;-32.030;115.880;2022-09-17T12:12:58;7.80;;;1.35;;
72369;SDS011;60343;-32.030;115.880;2022-09-17T12:15:33;5.55;;;1.30;;
72369;SDS011;60343;-32.030;115.880;2022-09-17T12:18:10;4.80;;;1.30;;
72369;SDS011;60343;-32.030;115.880;2022-09-17T12:20:49;4.57;;;1.30;;
72369;SDS011;60343;-32.030;115.880;2022-09-17T12:23:28;4.97;;;1.25;;
72369;SDS011;60343;-32.030;115.880;2022-09-17T12:26:03;6.60;;;1.33;;
72369;SDS011;60343;-32.030;115.880;2022-09-17T12:28:48;4.50;;;1.20;;
72369;SDS011;60343;-32.030;115.880;2022-09-17T12:31:23;4.38;;;1.00;;
72369;SDS011;60343;-32.030;115.880;2022-09-17T12:33:59;7.20;;;1.20;;
72369;SDS011;60343;-32.030;115.880;2022-09-17T12:36:39;3.42;;;0.90;;
72369;SDS011;60343;-32.030;115.880;2022-09-17T12:39:23;4.97;;;1.10;;
72369;SDS011;60343;-32.030;115.880;2022-09-17T12:42:11;3.90;;;0.95;;
72369;SDS011;60343;-32.030;115.880;2022-09-17T12:45:00;4.88;;;0.90;;
72369;SDS011;60343;-32.030;115.880;2022-09-17T12:47:48;3.78;;;0.90;;
72369;SDS011;60343;-32.030;115.880;2022-09-17T12:50:40;3.10;;;0.80;;
72369;SDS011;60343;-32.030;115.880;2022-09-17T12:53:22;5.35;;;1.00;;
72369;SDS011;60343;-32.030;115.880;2022-09-17T12:55:58;3.88;;;1.05;;
72369;SDS011;60343;-32.030;115.880;2022-09-17T12:58:45;4.85;;;1.27;;
72369;SDS011;60343;-32.030;115.880;2022-09-17T13:01:34;4.38;;;1.30;;
72369;SDS011;60343;-32.030;115.880;2022-09-17T13:04:16;4.35;;;1.52;;
72369;SDS011;60343;-32.030;115.880;2022-09-17T13:09:53;4.13;;;1.20;;
72369;SDS011;60343;-32.030;115.880;2022-09-17T13:12:35;5.43;;;1.50;;
72369;SDS011;60343;-32.030;115.880;2022-09-17T13:18:18;8.32;;;1.77;;
72369;SDS011;60343;-32.030;115.880;2022-09-17T13:21:04;5.88;;;1.50;;
72369;SDS011;60343;-32.030;115.880;2022-09-17T13:23:38;7.93;;;1.70;;
72369;SDS011;60343;-32.030;115.880;2022-09-17T13:26:07;7.07;;;1.88;;
72369;SDS011;60343;-32.030;115.880;2022-09-17T13:28:42;6.07;;;2.00;;
72369;SDS011;60343;-32.030;115.880;2022-09-17T13:31:12;6.97;;;2.05;;
72369;SDS011;60343;-32.030;115.880;2022-09-17T13:36:51;7.38;;;1.80;;
72369;SDS011;60343;-32.030;115.880;2022-09-17T13:42:09;4.85;;;2.08;;
72369;SDS011;60343;-32.030;115.880;2022-09-17T13:44:45;7.70;;;1.77;;
72369;SDS011;60343;-32.030;115.880;2022-09-17T13:47:21;6.47;;;1.83;;
72369;SDS011;60343;-32.030;115.880;2022-09-17T13:49:59;7.13;;;2.00;;
72369;SDS011;60343;-32.030;115.880;2022-09-17T13:52:31;6.03;;;1.80;;
72369;SDS011;60343;-32.030;115.880;2022-09-17T13:55:06;5.97;;;1.90;;
72369;SDS011;60343;-32.030;115.880;2022-09-17T13:57:55;10.68;;;1.90;;
72369;SDS011;60343;-32.030;115.880;2022-09-17T14:21:26;7.40;;;2.08;;
72369;SDS011;60343;-32.030;115.880;2022-09-17T14:23:59;5.68;;;1.60;;
72369;SDS011;60343;-32.030;115.880;2022-09-17T14:26:54;5.57;;;1.83;;
72369;SDS011;60343;-32.030;115.880;2022-09-17T14:29:39;4.40;;;1.60;;
72369;SDS011;60343;-32.030;115.880;2022-09-17T14:32:23;5.78;;;1.77;;
72369;SDS011;60343;-32.030;115.880;2022-09-17T14:34:56;5.60;;;2.00;;
72369;SDS011;60343;-32.030;115.880;2022-09-17T14:37:26;4.93;;;1.70;;
72369;SDS011;60343;-32.030;115.880;2022-09-17T14:39:55;5.75;;;1.73;;
72369;SDS011;60343;-32.030;115.880;2022-09-17T14:42:34;3.42;;;1.42;;
72369;SDS011;60343;-32.030;115.880;2022-09-17T14:45:04;4.38;;;1.60;;
72369;SDS011;60343;-32.030;115.880;2022-09-17T14:47:39;6.28;;;1.70;;
72369;SDS011;60343;-32.030;115.880;2022-09-17T14:50:19;5.38;;;1.80;;
72369;SDS011;60343;-32.030;115.880;2022-09-17T14:52:50;5.20;;;1.40;;
72369;SDS011;60343;-32.030;115.880;2022-09-17T14:55:20;4.50;;;1.77;;
72369;SDS011;60343;-32.030;115.880;2022-09-17T14:57:56;5.13;;;1.48;;
72369;SDS011;60343;-32.030;115.880;2022-09-17T15:00:30;5.07;;;2.03;;
72369;SDS011;60343;-32.030;115.880;2022-09-17T15:03:01;4.63;;;1.90;;
72369;SDS011;60343;-32.030;115.880;2022-09-17T15:05:30;6.57;;;1.80;;
72369;SDS011;60343;-32.030;115.880;2022-09-17T15:08:07;7.07;;;1.95;;
72369;SDS011;60343;-32.030;115.880;2022-09-17T15:10:45;7.53;;;1.98;;
72369;SDS011;60343;-32.030;115.880;2022-09-17T15:13:24;6.72;;;1.75;;
72369;SDS011;60343;-32.030;115.880;2022-09-17T15:15:57;8.18;;;2.30;;
72369;SDS011;60343;-32.030;115.880;2022-09-17T15:18:40;5.40;;;2.00;;
72369;SDS011;60343;-32.030;115.880;2022-09-17T15:21:24;5.35;;;2.10;;
72369;SDS011;60343;-32.030;115.880;2022-09-17T15:24:00;8.73;;;4.22;;
72369;SDS011;60343;-32.030;115.880;2022-09-17T15:26:40;12.00;;;4.72;;
72369;SDS011;60343;-32.030;115.880;2022-09-17T15:29:20;9.80;;;4.07;;
72369;SDS011;60343;-32.030;115.880;2022-09-17T15:31:51;11.43;;;4.20;;
72369;SDS011;60343;-32.030;115.880;2022-09-17T15:34:20;10.98;;;3.45;;
72369;SDS011;60343;-32.030;115.880;2022-09-17T15:39:37;8.82;;;2.80;;
72369;SDS011;60343;-32.030;115.880;2022-09-17T15:42:16;5.68;;;2.53;;
72369;SDS011;60343;-32.030;115.880;2022-09-17T15:44:57;6.88;;;2.60;;
72369;SDS011;60343;-32.030;115.880;2022-09-17T15:47:52;6.40;;;2.63;;
72369;SDS011;60343;-32.030;115.880;2022-09-17T15:50:22;6.72;;;2.63;;
72369;SDS011;60343;-32.030;115.880;2022-09-17T15:52:57;6.88;;;2.40;;
72369;SDS011;60343;-32.030;115.880;2022-09-17T15:55:41;6.15;;;2.40;;
72369;SDS011;60343;-32.030;115.880;2022-09-17T15:58:20;7.70;;;3.10;;
72369;SDS011;60343;-32.030;115.880;2022-09-17T16:06:54;6.68;;;2.95;;